Time;durP1;ratioP1;P1;durP2;ratioP2;P2;SDS_P1;SDS_P2;PMS_P1;PMS_P2;Temp;Humidity;BMP_temperature;BMP_pressure;BME280_temperature;BME280_humidity;BME280_pressure;Samples;Min_cycle;Max_cycle;Signal;HPM_P1;HPM_P2
2022/05/26 00:03:48;;;;;;;22.05;6.47;;;;;;;14.70;100.00;101649.00;10418766;28;20607;-76
2022/05/26 00:08:50;;;;;;;26.33;7.63;;;;;;;14.71;100.00;101649.84;10416405;28;20025;-75
2022/05/26 00:13:50;;;;;;;20.60;7.43;;;;;;;14.62;100.00;101652.78;10416982;28;20099;-76
2022/05/26 00:18:51;;;;;;;14.52;8.18;;;;;;;14.61;100.00;101650.25;10417045;28;20083;-75
2022/05/26 00:23:56;;;;;;;24.02;7.28;;;;;;;14.52;100.00;101656.94;10415365;28;20037;-75
2022/05/26 00:28:57;;;;;;;32.78;9.90;;;;;;;14.71;100.00;101666.19;10416549;28;20025;-75
2022/05/26 00:33:57;;;;;;;31.95;8.05;;;;;;;14.71;100.00;101667.06;10399295;28;20132;-75
2022/05/26 00:38:58;;;;;;;16.63;5.50;;;;;;;14.57;100.00;101671.63;10417033;28;20037;-76
2022/05/26 00:43:58;;;;;;;30.73;8.52;;;;;;;14.55;100.00;101681.91;10398620;28;20071;-76
2022/05/26 00:48:59;;;;;;;21.88;7.68;;;;;;;14.61;100.00;101672.91;10414183;28;20507;-76
2022/05/26 00:54:04;;;;;;;20.92;7.53;;;;;;;14.68;100.00;101680.22;10415805;28;20369;-75
2022/05/26 00:59:11;;;;;;;22.30;7.75;;;;;;;14.69;100.00;101687.38;10415192;28;20029;-75
2022/05/26 01:04:12;;;;;;;;;;;;;;;14.68;100.00;101681.09;10399968;28;20037;-75
2022/05/26 01:09:13;;;;;;;27.70;7.40;;;;;;;14.73;100.00;101691.38;10397725;28;20012;-76
2022/05/26 01:14:18;;;;;;;35.13;7.30;;;;;;;14.69;100.00;101690.94;10414343;28;20384;-76
2022/05/26 01:19:44;;;;;;;25.02;6.43;;;;;;;14.71;100.00;101693.47;10415268;28;20037;-76
2022/05/26 01:24:45;;;;;;;13.57;6.05;;;;;;;14.62;100.00;101695.56;10415195;28;20034;-75
2022/05/26 01:29:53;;;;;;;12.90;5.15;;;;;;;14.64;100.00;101696.16;10418985;28;20037;-76
2022/05/26 01:35:03;;;;;;;24.70;6.82;;;;;;;14.74;100.00;101699.38;10421777;28;20045;-76
2022/05/26 01:40:28;;;;;;;11.13;3.10;;;;;;;14.74;100.00;101704.81;10423043;28;20042;-75
2022/05/26 01:45:55;;;;;;;35.00;11.43;;;;;;;14.78;100.00;101711.53;10407220;28;20124;-75
2022/05/26 01:50:58;;;;;;;9.93;4.53;;;;;;;14.67;100.00;101708.56;10421636;28;20079;-75
2022/05/26 01:56:25;;;;;;;8.63;3.22;;;;;;;14.65;100.00;101717.78;10404857;28;20453;-75
2022/05/26 02:01:28;;;;;;;8.05;4.07;;;;;;;14.65;100.00;101711.50;10422759;28;20041;-75
2022/05/26 02:06:30;;;;;;;14.15;4.40;;;;;;;14.65;100.00;101723.25;10404670;28;20033;-76
2022/05/26 02:11:30;;;;;;;10.98;3.40;;;;;;;14.69;100.00;101729.13;10403955;28;20036;-75
2022/05/26 02:16:40;;;;;;;6.85;3.05;;;;;;;14.62;100.00;101734.53;10421064;28;20048;-76
2022/05/26 02:21:49;;;;;;;10.75;3.45;;;;;;;14.50;100.00;101741.59;10403905;28;20083;-75
2022/05/26 02:26:50;;;;;;;10.25;4.63;;;;;;;14.43;100.00;101744.28;10421728;28;20033;-76
2022/05/26 02:31:50;;;;;;;10.80;4.20;;;;;;;14.29;100.00;101750.69;10420673;28;20519;-75
2022/05/26 02:36:53;;;;;;;9.23;4.15;;;;;;;14.16;100.00;101756.06;10403890;28;20054;-75
2022/05/26 02:41:54;;;;;;;8.98;3.72;;;;;;;14.12;100.00;101766.53;10420570;28;20041;-76
2022/05/26 02:46:55;;;;;;;9.98;4.10;;;;;;;14.13;100.00;101768.22;10419122;28;20059;-75
2022/05/26 02:52:16;;;;;;;18.67;4.82;;;;;;;14.21;100.00;101769.13;10421762;28;20030;-75
2022/05/26 02:57:38;;;;;;;23.10;4.22;;;;;;;14.17;100.00;101771.41;10420386;28;20026;-75
2022/05/26 03:02:54;;;;;;;8.30;3.88;;;;;;;14.12;100.00;101768.41;10403466;28;20036;-75
2022/05/26 03:07:57;;;;;;;5.22;2.80;;;;;;;14.09;100.00;101782.44;10418724;28;20457;-75
2022/05/26 03:12:59;;;;;;;14.73;4.53;;;;;;;14.19;100.00;101778.31;10385934;28;20072;-75
2022/05/26 03:18:01;;;;;;;10.43;4.00;;;;;;;14.28;100.00;101783.59;10401827;28;20029;-76
2022/05/26 03:23:02;;;;;;;14.70;4.25;;;;;;;14.34;100.00;101789.09;10418690;28;20048;-75
2022/05/26 03:28:02;;;;;;;23.20;4.85;;;;;;;14.37;100.00;101785.13;10401424;28;20392;-76
2022/05/26 03:33:02;;;;;;;27.80;3.83;;;;;;;14.32;100.00;101787.59;10419186;28;20057;-76
2022/05/26 03:43:43;;;;;;;15.60;4.65;;;;;;;13.99;100.00;101790.13;10417734;28;20041;-75
2022/05/26 03:48:43;;;;;;;4.38;3.75;;;;;;;13.87;100.00;101792.53;10418447;28;20033;-75
2022/05/26 03:53:44;;;;;;;19.38;5.60;;;;;;;14.00;100.00;101806.25;10400180;28;20044;-76
2022/05/26 03:58:44;;;;;;;8.43;3.45;;;;;;;14.21;100.00;101812.69;10400159;28;20025;-75
2022/05/26 04:03:45;;;;;;;11.77;3.78;;;;;;;14.30;100.00;101816.94;10418514;28;20041;-75
2022/05/26 04:08:45;;;;;;;7.25;3.63;;;;;;;14.17;100.00;101814.97;10417693;28;20099;-75
2022/05/26 04:13:45;;;;;;;4.10;3.33;;;;;;;14.06;100.00;101829.97;10417226;28;20053;-76
2022/05/26 04:18:46;;;;;;;15.45;4.45;;;;;;;13.96;100.00;101835.75;10416985;28;20037;-76
2022/05/26 04:23:46;;;;;;;8.48;2.80;;;;;;;14.06;100.00;101840.88;10416785;28;20095;-78
2022/05/26 04:28:47;;;;;;;8.45;4.63;;;;;;;14.19;100.00;101845.56;10416674;28;20029;-75
2022/05/26 04:33:47;;;;;;;11.55;3.38;;;;;;;14.33;100.00;101861.00;10416818;28;20104;-75
2022/05/26 04:38:47;;;;;;;8.80;4.03;;;;;;;14.35;100.00;101858.88;10417583;28;20042;-75
2022/05/26 04:43:48;;;;;;;11.75;3.75;;;;;;;14.21;100.00;101859.84;10415599;28;20073;-76
2022/05/26 04:48:48;;;;;;;14.57;4.55;;;;;;;14.43;100.00;101874.25;10415587;28;20049;-76
2022/05/26 04:53:48;;;;;;;9.38;2.97;;;;;;;15.46;100.00;101874.34;10415542;28;20036;-76
2022/05/26 04:58:50;;;;;;;2.92;2.72;;;;;;;16.22;99.75;101874.03;10415967;28;20057;-76
2022/05/26 05:03:50;;;;;;;12.23;3.05;;;;;;;16.80;98.22;101873.34;10401090;28;20042;-76
2022/05/26 05:08:51;;;;;;;7.28;3.17;;;;;;;17.23;96.45;101879.06;10430364;28;20045;-76
2022/05/26 05:13:51;;;;;;;15.30;4.38;;;;;;;17.71;95.33;101880.44;10411299;28;20323;-77
2022/05/26 05:18:52;;;;;;;3.70;3.03;;;;;;;18.01;93.01;101891.66;10429998;28;20113;-76
2022/05/26 05:23:55;;;;;;;15.45;4.63;;;;;;;18.16;88.87;101894.91;10428927;28;20041;-77
2022/05/26 05:28:59;;;;;;;11.18;3.50;;;;;;;18.40;87.71;101897.88;10427559;28;20033;-77
2022/05/26 05:34:01;;;;;;;7.40;3.63;;;;;;;18.72;85.42;101904.94;10412056;28;20089;-76
2022/05/26 05:39:02;;;;;;;15.35;3.13;;;;;;;19.06;82.94;101908.16;10411031;28;20095;-76
2022/05/26 05:44:04;;;;;;;6.10;2.78;;;;;;;19.31;81.64;101908.06;10428903;28;20050;-76
2022/05/26 05:49:05;;;;;;;5.95;2.45;;;;;;;19.50;80.79;101914.38;10411352;28;20033;-76
2022/05/26 05:54:05;;;;;;;12.27;4.03;;;;;;;19.73;80.83;101919.16;10428677;28;20038;-76
2022/05/26 05:59:05;;;;;;;4.13;2.35;;;;;;;20.29;78.15;101928.00;10428162;28;20030;-76
2022/05/26 06:04:06;;;;;;;8.73;3.53;;;;;;;19.73;77.43;101941.13;10429346;28;20112;-76
2022/05/26 06:09:07;;;;;;;3.40;2.53;;;;;;;19.90;77.29;101935.81;10410400;28;20037;-76
2022/05/26 06:14:07;;;;;;;5.88;2.70;;;;;;;20.54;78.71;101942.41;10410908;28;20025;-76
2022/05/26 06:19:08;;;;;;;17.30;3.45;;;;;;;20.91;73.03;101944.91;10402717;28;20467;-76
2022/05/26 06:24:09;;;;;;;3.17;2.88;;;;;;;;;;10421275;28;20061;-76
2022/05/26 06:39:49;;;;;;;6.10;3.15;;;;;;;22.24;68.79;101967.72;10389601;28;20103;-75
2022/05/26 06:44:49;;;;;;;8.45;2.88;;;;;;;22.10;65.24;101979.28;10420611;28;20041;-70
2022/05/26 06:49:50;;;;;;;4.28;3.30;;;;;;;22.40;65.59;101974.34;10402938;28;20040;-70
2022/05/26 06:54:50;;;;;;;24.23;4.05;;;;;;;22.57;64.09;101979.03;10420096;28;20361;-70
2022/05/26 06:59:51;;;;;;;12.38;3.95;;;;;;;22.81;64.06;101972.19;10419939;28;20029;-70
2022/05/26 07:04:51;;;;;;;4.88;3.05;;;;;;;22.10;67.14;101984.81;10402376;28;20038;-70
2022/05/26 07:09:55;;;;;;;4.10;3.08;;;;;;;22.21;65.30;101990.31;10419383;28;20036;-70
2022/05/26 07:14:55;;;;;;;9.20;2.35;;;;;;;23.35;63.41;101980.72;10420431;28;20049;-70
2022/05/26 07:19:56;;;;;;;13.20;3.45;;;;;;;23.19;62.04;101989.91;10419124;28;20034;-71
2022/05/26 07:24:56;;;;;;;5.97;3.10;;;;;;;23.64;59.85;101989.66;10419509;28;20030;-71
2022/05/26 07:29:57;;;;;;;3.95;2.85;;;;;;;24.41;60.05;101996.03;10418531;28;20536;-70
2022/05/26 07:34:57;;;;;;;5.25;2.90;;;;;;;22.19;60.98;101994.38;10418530;28;20053;-70
2022/05/26 07:45:17;;;;;;;7.45;2.78;;;;;;;20.13;70.86;102001.03;10402366;28;20033;-69
2022/05/26 07:50:20;;;;;;;6.65;2.30;;;;;;;20.88;67.62;102020.56;10400591;28;20104;-72
2022/05/26 07:55:21;;;;;;;11.07;2.80;;;;;;;20.69;69.93;102021.75;10385359;28;20095;-72
2022/05/26 08:00:21;;;;;;;8.20;3.72;;;;;;;21.12;68.28;102021.41;10399057;28;20543;-72
2022/05/26 08:05:22;;;;;;;8.00;2.85;;;;;;;21.84;68.21;102017.44;10416359;28;20092;-72
2022/05/26 08:10:22;;;;;;;3.80;2.53;;;;;;;20.99;64.05;102029.88;10416906;28;20038;-72
2022/05/26 08:15:22;;;;;;;12.90;3.28;;;;;;;21.97;61.81;102030.91;10399209;28;20293;-72
2022/05/26 08:20:23;;;;;;;6.10;3.03;;;;;;;21.74;66.34;102031.00;10399592;28;20400;-72
2022/05/26 08:25:23;;;;;;;6.70;2.65;;;;;;;23.03;60.82;102029.47;10399242;28;20041;-72
2022/05/26 08:30:24;;;;;;;2.83;2.45;;;;;;;22.79;60.00;102037.09;10416324;28;20037;-72
2022/05/26 08:35:24;;;;;;;5.88;2.80;;;;;;;22.30;60.95;102048.66;10416706;28;20065;-72
2022/05/26 08:40:40;;;;;;;6.72;3.30;;;;;;;22.26;60.22;102051.06;10415492;28;20075;-72
2022/05/26 08:45:44;;;;;;;8.13;3.95;;;;;;;20.77;65.33;102064.59;10399624;28;20033;-72
2022/05/26 08:50:44;;;;;;;12.32;4.18;;;;;;;21.07;67.22;102073.63;10398052;28;20041;-72
2022/05/26 08:55:49;;;;;;;10.55;3.42;;;;;;;21.11;64.39;102079.47;10416166;28;20065;-72
2022/05/26 09:00:51;;;;;;;7.47;3.40;;;;;;;21.40;63.85;102085.97;10398699;28;20025;-73
2022/05/26 09:06:03;;;;;;;10.23;2.85;;;;;;;21.62;64.14;102082.59;10398410;28;20029;-74
2022/05/26 09:16:27;;;;;;;11.73;3.83;;;;;;;20.36;66.13;102086.38;10400083;28;20059;-72
2022/05/26 09:21:31;;;;;;;9.82;3.45;;;;;;;20.62;65.38;102090.66;10414821;28;20040;-73
2022/05/26 09:26:31;;;;;;;13.00;3.60;;;;;;;22.05;64.49;102099.50;10397153;28;20041;-73
2022/05/26 09:31:35;;;;;;;9.93;2.92;;;;;;;21.89;62.42;102089.25;10397272;28;20033;-73
2022/05/26 09:36:37;;;;;;;5.57;2.63;;;;;;;22.13;61.12;102106.53;10397829;28;20057;-73
2022/05/26 09:41:43;;;;;;;9.88;3.47;;;;;;;23.43;58.63;102101.09;10398536;28;20088;-73
2022/05/26 09:46:47;;;;;;;3.10;2.25;;;;;;;24.04;55.16;102098.31;10397908;28;20025;-73
2022/05/26 09:51:49;;;;;;;3.75;2.45;;;;;;;24.49;55.19;102102.69;10354645;28;20500;-73
2022/05/26 09:56:49;;;;;;;10.20;3.20;;;;;;;24.58;54.59;102115.81;10422580;28;20034;-73
2022/05/26 10:01:50;;;;;;;7.65;2.75;;;;;;;25.33;48.40;102110.31;10422168;28;20461;-73
2022/05/26 10:07:32;;;;;;;3.58;2.58;;;;;;;23.78;54.48;102138.66;10419737;28;20061;-74
2022/05/26 10:13:16;;;;;;;12.32;5.00;;;;;;;22.86;55.39;102138.00;10379314;28;20072;-73
2022/05/26 10:18:29;;;;;;;3.22;2.53;;;;;;;23.59;55.35;102114.03;10404019;28;20049;-72
2022/05/26 10:24:01;;;;;;;6.57;2.53;;;;;;;24.15;52.68;102111.16;10420778;28;20108;-72
2022/05/26 10:29:20;;;;;;;12.00;2.20;;;;;;;24.82;50.35;102124.63;10420442;28;20029;-72
2022/05/26 10:34:46;;;;;;;2.85;2.10;;;;;;;25.88;50.92;102122.88;10403876;28;20053;-72
2022/05/26 10:40:18;;;;;;;6.57;3.10;;;;;;;25.50;49.86;102110.16;10421118;28;20032;-72
2022/05/26 10:45:25;;;;;;;7.22;3.05;;;;;;;24.24;48.54;102104.06;10419513;28;20473;-73
2022/05/26 10:50:47;;;;;;;3.35;2.55;;;;;;;24.31;49.10;102115.78;10401654;28;20035;-72
2022/05/26 10:55:54;;;;;;;17.00;2.30;;;;;;;24.96;48.48;102115.88;10401783;28;20034;-74
2022/05/26 11:00:55;;;;;;;;;;;;;;;23.99;49.94;102101.00;10402410;28;20108;-73
2022/05/26 11:06:07;;;;;;;3.45;2.53;;;;;;;23.84;53.44;102094.19;10421836;28;20419;-74
2022/05/26 11:11:18;;;;;;;3.15;2.67;;;;;;;23.33;52.39;102098.19;10421914;28;20080;-74
2022/05/26 11:21:40;;;;;;;13.02;2.85;;;;;;;24.59;51.28;102080.63;10418559;28;20419;-70
2022/05/26 11:27:02;;;;;;;9.90;2.97;;;;;;;25.65;47.81;102084.44;10418268;28;20038;-70
2022/05/26 11:37:44;;;;;;;4.47;2.42;;;;;;;26.21;43.38;102104.94;10419299;28;20050;-74
2022/05/26 11:42:47;;;;;;;1.80;1.70;;;;;;;25.75;45.13;102113.06;10401050;28;20033;-73
2022/05/26 11:47:50;;;;;;;2.85;1.52;;;;;;;25.80;44.37;102108.63;10418463;28;20033;-73
2022/05/26 11:52:53;;;;;;;2.88;2.00;;;;;;;26.17;43.91;102114.94;10419080;28;20445;-74
2022/05/26 11:57:54;;;;;;;7.28;3.25;;;;;;;25.50;43.46;102101.84;10417615;28;20534;-74
2022/05/26 12:03:27;;;;;;;3.25;2.53;;;;;;;24.52;45.52;102110.47;10417677;28;20033;-73
2022/05/26 12:08:34;;;;;;;2.55;1.38;;;;;;;23.96;46.81;102118.94;10418030;28;20060;-73
2022/05/26 12:13:36;;;;;;;2.75;1.55;;;;;;;23.95;46.83;102106.22;10415469;28;20030;-76
2022/05/26 12:18:38;;;;;;;2.35;1.65;;;;;;;23.52;46.74;102112.53;10415937;28;20069;-77
2022/05/26 12:23:39;;;;;;;5.10;2.45;;;;;;;23.40;45.84;102120.94;10398322;28;20116;-76
2022/05/26 12:28:39;;;;;;;2.80;1.83;;;;;;;22.95;47.21;102127.41;10416487;28;20113;-77
2022/05/26 12:34:03;;;;;;;12.18;3.38;;;;;;;23.36;48.33;102133.59;10398605;28;20060;-76
2022/05/26 12:39:25;;;;;;;4.57;1.80;;;;;;;23.85;47.29;102101.41;10383456;28;20033;-76
2022/05/26 12:44:50;;;;;;;2.40;1.83;;;;;;;24.02;47.51;102100.47;10416367;28;20045;-76
2022/05/26 12:49:58;;;;;;;13.55;2.60;;;;;;;24.31;45.90;102099.19;10416580;28;20026;-76
2022/05/26 12:55:21;;;;;;;6.55;3.10;;;;;;;23.73;49.35;102092.38;10414287;28;20030;-76
2022/05/26 13:00:21;;;;;;;4.20;2.30;;;;;;;24.85;47.18;102094.69;10417612;28;20044;-76
2022/05/26 13:05:22;;;;;;;2.97;2.28;;;;;;;25.00;48.58;102103.13;10415672;28;20048;-76
2022/05/26 13:10:25;;;;;;;2.50;2.10;;;;;;;23.89;48.43;102096.19;10415148;28;20038;-76
2022/05/26 13:15:26;;;;;;;3.45;2.13;;;;;;;23.47;49.88;102093.94;10397548;28;20317;-77
2022/05/26 13:20:32;;;;;;;5.35;2.45;;;;;;;23.66;50.09;102088.94;10415366;28;20033;-77
2022/05/26 13:25:33;;;;;;;5.27;2.60;;;;;;;23.23;50.55;102093.34;10400626;28;20377;-77
2022/05/26 13:36:01;;;;;;;4.95;2.38;;;;;;;23.34;50.49;102066.66;10422566;28;20061;-78
2022/05/26 13:41:03;;;;;;;4.97;2.63;;;;;;;23.13;51.36;102066.38;10405595;28;20038;-76
2022/05/26 13:46:04;;;;;;;7.75;3.15;;;;;;;22.89;50.57;102070.38;10421909;28;20037;-76
2022/05/26 13:51:16;;;;;;;5.97;2.60;;;;;;;22.46;51.91;102047.88;10421991;28;20052;-76
2022/05/26 13:56:29;;;;;;;2.72;2.42;;;;;;;22.61;51.88;102040.91;10423222;28;20021;-77
2022/05/26 14:01:30;;;;;;;2.67;2.13;;;;;;;22.61;52.31;102039.00;10423011;28;20117;-76
2022/05/26 14:06:34;;;;;;;2.15;1.23;;;;;;;22.52;49.48;102044.09;10404541;28;20458;-76
2022/05/26 14:11:42;;;;;;;1.63;1.20;;;;;;;21.58;51.00;102050.00;10421486;28;20065;-77
2022/05/26 14:16:43;;;;;;;1.70;1.45;;;;;;;21.42;51.05;102055.41;10421105;28;20036;-76
2022/05/26 14:21:48;;;;;;;4.10;2.37;;;;;;;21.61;52.67;102042.31;10405109;28;20040;-77
2022/05/26 14:27:00;;;;;;;4.38;1.55;;;;;;;21.58;52.32;102038.13;10404803;28;20741;-76
2022/05/26 14:32:31;;;;;;;3.65;2.08;;;;;;;21.73;53.88;102021.06;10421304;28;20068;-76
2022/05/26 14:37:31;;;;;;;5.88;3.15;;;;;;;21.59;54.61;102029.59;10379304;28;20119;-77
2022/05/26 14:42:43;;;;;;;4.93;2.75;;;;;;;21.44;55.14;102021.03;10379565;28;20103;-76
2022/05/26 14:47:44;;;;;;;6.18;1.77;;;;;;;21.25;56.65;102023.06;10362057;28;20044;-76
2022/05/26 14:52:48;;;;;;;4.47;1.75;;;;;;;20.94;59.12;102026.22;10378516;28;20041;-76
2022/05/26 14:57:48;;;;;;;2.75;2.38;;;;;;;21.04;60.71;102024.50;10378348;28;20381;-77
2022/05/26 15:02:49;;;;;;;7.40;3.17;;;;;;;20.86;61.02;102019.94;10378956;28;20034;-76
2022/05/26 15:07:49;;;;;;;5.30;2.67;;;;;;;20.32;62.87;102018.28;10379302;28;20062;-76
2022/05/26 15:12:49;;;;;;;13.73;4.13;;;;;;;20.05;65.71;102023.38;10378701;28;20386;-77
2022/05/26 15:17:50;;;;;;;7.82;3.25;;;;;;;19.92;66.84;102024.38;10360406;28;20041;-76
2022/05/26 15:22:50;;;;;;;7.00;4.07;;;;;;;20.25;66.73;102028.56;10378432;28;20066;-77
2022/05/26 15:27:51;;;;;;;4.93;2.30;;;;;;;20.50;67.17;102014.63;10378673;28;20034;-76
2022/05/26 15:32:51;;;;;;;7.70;3.03;;;;;;;20.52;65.58;102018.88;10378570;28;20034;-76
2022/05/26 15:37:54;;;;;;;3.35;2.90;;;;;;;19.98;67.11;102009.72;10416663;28;20056;-76
2022/05/26 15:42:55;;;;;;;19.55;4.03;;;;;;;19.55;68.43;102018.91;10384827;28;20021;-76
2022/05/26 15:47:57;;;;;;;10.32;3.15;;;;;;;19.29;68.88;102018.16;10417549;28;20413;-76
2022/05/26 15:53:00;;;;;;;13.25;3.72;;;;;;;19.28;69.33;102027.47;10400387;28;20040;-76
2022/05/26 15:58:00;;;;;;;9.38;3.10;;;;;;;19.29;69.75;102018.16;10418090;28;20120;-76
2022/05/26 16:03:01;;;;;;;9.35;3.47;;;;;;;19.31;69.56;102011.59;10399860;28;20123;-76
2022/05/26 16:08:01;;;;;;;14.23;2.42;;;;;;;19.21;69.88;102021.22;10418621;28;20033;-76
2022/05/26 16:13:02;;;;;;;3.20;2.17;;;;;;;19.34;70.37;102000.16;10399002;28;20477;-76
2022/05/26 16:18:04;;;;;;;5.28;3.33;;;;;;;19.39;70.47;102000.28;10415903;28;20038;-76
2022/05/26 16:23:04;;;;;;;8.45;2.70;;;;;;;19.31;71.50;101992.38;10383299;28;20041;-76
2022/05/26 16:28:05;;;;;;;9.10;2.85;;;;;;;18.83;72.54;102004.91;10416997;28;20029;-76
2022/05/26 16:33:06;;;;;;;6.38;3.13;;;;;;;18.65;75.28;102008.41;10417154;28;20025;-77
2022/05/26 16:38:07;;;;;;;2.15;2.00;;;;;;;18.53;75.36;102004.72;10399560;28;20095;-76
2022/05/26 16:43:07;;;;;;;10.07;3.13;;;;;;;18.38;75.95;102007.81;10415714;28;20120;-76
2022/05/26 16:48:08;;;;;;;8.30;2.55;;;;;;;18.42;76.14;102003.53;10417452;28;20427;-76
2022/05/26 16:53:08;;;;;;;22.35;3.40;;;;;;;18.45;76.56;101994.03;10398736;28;20124;-77
2022/05/26 16:58:09;;;;;;;10.20;3.13;;;;;;;18.42;76.81;101987.09;10399325;28;20033;-76
2022/05/26 17:03:09;;;;;;;7.93;3.80;;;;;;;18.13;78.62;101994.06;10414974;28;20121;-76
2022/05/26 17:08:12;;;;;;;4.95;3.28;;;;;;;17.98;79.63;101996.25;10415149;28;20108;-76
2022/05/26 17:23:53;;;;;;;7.03;2.80;;;;;;;17.41;83.96;101996.91;10414775;28;20405;-76
2022/05/26 17:28:54;;;;;;;4.93;3.28;;;;;;;17.35;84.71;101991.44;10397199;28;20026;-76
2022/05/26 17:33:54;;;;;;;5.50;1.80;;;;;;;17.27;85.19;101987.06;10396967;28;20054;-76
2022/05/26 17:38:55;;;;;;;6.47;2.45;;;;;;;17.20;85.83;101984.34;10416138;28;20045;-76
2022/05/26 17:43:55;;;;;;;11.63;3.00;;;;;;;17.13;87.04;101982.66;10413788;28;20037;-76
2022/05/26 17:48:56;;;;;;;9.50;3.25;;;;;;;17.05;87.83;101964.59;10414280;28;20037;-76
2022/05/26 17:53:57;;;;;;;2.80;1.95;;;;;;;16.89;88.62;101976.00;10414777;28;20475;-76
2022/05/26 17:58:57;;;;;;;11.60;3.22;;;;;;;16.71;90.11;101954.72;10414857;28;20464;-76
2022/05/26 18:03:58;;;;;;;11.25;3.67;;;;;;;16.60;90.68;101977.28;10396365;28;20478;-76
2022/05/26 18:08:58;;;;;;;12.18;4.43;;;;;;;16.72;90.15;101960.00;10396813;28;20080;-76
2022/05/26 18:13:59;;;;;;;9.20;2.67;;;;;;;16.77;90.52;101951.19;10418931;28;20056;-76
2022/05/26 18:19:02;;;;;;;12.35;4.57;;;;;;;16.57;91.60;101953.09;10421721;28;20042;-76
2022/05/26 18:24:03;;;;;;;7.22;2.92;;;;;;;16.39;92.63;101948.25;10421079;28;20037;-76
2022/05/26 18:29:03;;;;;;;5.63;3.13;;;;;;;16.34;93.10;101946.16;10421682;28;20037;-75
2022/05/26 18:34:04;;;;;;;6.05;2.83;;;;;;;16.25;93.64;101936.47;10420184;28;20053;-76
2022/05/26 18:39:05;;;;;;;11.00;2.88;;;;;;;16.29;93.65;101943.19;10402927;28;20049;-77
2022/05/26 18:44:06;;;;;;;4.38;2.78;;;;;;;16.35;93.69;101939.63;10421941;28;20037;-76
2022/05/26 18:49:06;;;;;;;6.20;3.45;;;;;;;16.28;94.24;101947.00;10422288;28;20042;-78
2022/05/26 18:54:06;;;;;;;4.70;2.88;;;;;;;16.27;93.92;101950.75;10419256;28;20547;-79
2022/05/26 18:59:07;;;;;;;6.40;2.90;;;;;;;16.25;94.41;101952.88;10419935;28;20034;-77
2022/05/26 19:04:08;;;;;;;8.75;2.97;;;;;;;16.24;94.78;101959.38;10422000;28;20057;-78
2022/05/26 19:09:10;;;;;;;10.57;3.75;;;;;;;16.20;94.66;101945.28;10386871;28;20041;-79
2022/05/26 19:14:28;;;;;;;12.88;3.70;;;;;;;16.19;94.58;101948.25;10419489;28;20040;-77
2022/05/26 19:19:28;;;;;;;7.18;2.65;;;;;;;16.17;95.00;101953.91;10403328;28;20091;-77
2022/05/26 19:24:29;;;;;;;9.50;2.05;;;;;;;16.12;94.56;101950.97;10403068;28;20033;-76
2022/05/26 19:29:33;;;;;;;4.60;2.60;;;;;;;16.02;96.45;101962.31;10422420;28;20040;-77
2022/05/26 19:34:34;;;;;;;5.18;3.08;;;;;;;16.07;96.04;101961.69;10403430;28;20123;-76
2022/05/26 19:39:35;;;;;;;12.05;3.05;;;;;;;16.20;95.48;101972.63;10419456;28;20068;-76
2022/05/26 19:44:39;;;;;;;11.35;3.50;;;;;;;16.15;95.97;101964.22;10401396;28;20040;-78
2022/05/26 19:49:39;;;;;;;10.57;3.78;;;;;;;16.10;96.96;101972.19;10400870;28;20444;-78
2022/05/26 19:54:40;;;;;;;8.82;3.55;;;;;;;16.08;97.25;101962.50;10418716;28;20029;-78
2022/05/26 19:59:40;;;;;;;16.00;3.20;;;;;;;16.04;97.63;101973.03;10417725;28;20044;-77
2022/05/26 20:04:41;;;;;;;14.52;4.60;;;;;;;16.06;97.88;101981.03;10418422;28;20041;-78
2022/05/26 20:09:41;;;;;;;5.32;3.20;;;;;;;16.03;98.42;101968.63;10400402;28;20033;-77
2022/05/26 20:14:42;;;;;;;7.88;3.30;;;;;;;16.12;98.22;101977.47;10417318;28;20036;-78
2022/05/26 20:19:42;;;;;;;8.23;3.03;;;;;;;16.00;98.88;101975.31;10417579;28;20033;-77
2022/05/26 20:24:43;;;;;;;10.85;3.70;;;;;;;16.02;99.00;101986.91;10399354;28;20063;-78
2022/05/26 20:29:47;;;;;;;12.82;4.18;;;;;;;16.04;99.46;101986.69;10399876;28;20037;-77
2022/05/26 20:34:47;;;;;;;18.42;3.65;;;;;;;16.08;99.08;101984.38;10415740;28;20048;-77
2022/05/26 20:39:47;;;;;;;7.05;4.70;;;;;;;15.96;100.00;101985.00;10417297;28;20378;-78
2022/05/26 20:44:48;;;;;;;10.25;3.85;;;;;;;15.99;100.00;101981.84;10398561;28;20036;-77
2022/05/26 20:49:51;;;;;;;10.52;4.22;;;;;;;15.96;100.00;101974.06;10418059;28;20026;-77
2022/05/26 20:54:51;;;;;;;7.75;3.67;;;;;;;16.00;100.00;101983.53;10415637;28;20091;-77
2022/05/26 20:59:52;;;;;;;11.98;3.95;;;;;;;15.98;100.00;101996.53;10416279;28;20075;-78
2022/05/26 21:04:52;;;;;;;17.98;5.03;;;;;;;15.98;100.00;101990.25;10416512;28;20080;-77
2022/05/26 21:09:53;;;;;;;18.65;6.10;;;;;;;15.88;100.00;101996.09;10415405;28;20056;-77
2022/05/26 21:14:53;;;;;;;14.45;4.15;;;;;;;15.85;100.00;101982.84;10415990;28;20179;-77
2022/05/26 21:19:54;;;;;;;16.48;5.05;;;;;;;15.87;100.00;101988.13;10399237;28;20080;-78
2022/05/26 21:24:54;;;;;;;15.05;5.38;;;;;;;15.76;100.00;101986.81;10415592;28;20123;-77
2022/05/26 21:29:55;;;;;;;30.08;5.50;;;;;;;15.77;100.00;101977.59;10416213;28;20037;-77
2022/05/26 21:34:55;;;;;;;19.77;4.90;;;;;;;15.79;100.00;101978.22;10415095;28;20499;-78
2022/05/26 21:39:55;;;;;;;11.52;5.45;;;;;;;15.78;100.00;101971.06;10415991;28;20080;-77
2022/05/26 21:44:56;;;;;;;7.65;4.28;;;;;;;15.73;100.00;101970.84;10415560;28;20499;-77
2022/05/26 21:49:57;;;;;;;22.65;8.70;;;;;;;15.79;100.00;101967.28;10424760;28;20060;-77
2022/05/26 21:54:57;;;;;;;20.17;7.38;;;;;;;15.71;100.00;101967.50;10404956;28;20049;-77
2022/05/26 21:59:57;;;;;;;18.23;6.82;;;;;;;15.66;100.00;101964.50;10406326;28;20073;-77
2022/05/26 22:15:36;;;;;;;15.98;6.70;;;;;;;15.60;100.00;101960.69;10422524;28;20108;-77
2022/05/26 22:20:36;;;;;;;16.23;5.93;;;;;;;15.55;100.00;101964.03;10404268;28;20461;-77
2022/05/26 22:25:36;;;;;;;20.13;6.32;;;;;;;15.45;100.00;101954.56;10421664;28;20112;-77
2022/05/26 22:30:37;;;;;;;23.02;7.43;;;;;;;15.48;100.00;101963.19;10421849;28;20469;-76
2022/05/26 22:35:38;;;;;;;27.30;6.47;;;;;;;15.48;100.00;101967.81;10403768;28;20049;-76
2022/05/26 22:40:41;;;;;;;8.80;5.15;;;;;;;15.55;100.00;101964.03;10422895;28;20117;-76
2022/05/26 22:45:46;;;;;;;25.75;7.13;;;;;;;15.52;100.00;101972.63;10422630;28;20113;-76
2022/05/26 22:50:48;;;;;;;20.00;6.18;;;;;;;15.65;100.00;101984.66;10404791;28;20521;-77
2022/05/26 22:55:49;;;;;;;10.05;4.78;;;;;;;15.70;100.00;101968.53;10419366;28;20033;-76
2022/05/26 23:00:50;;;;;;;24.48;7.53;;;;;;;15.71;100.00;101972.94;10401656;28;20076;-77
2022/05/26 23:05:50;;;;;;;20.25;6.93;;;;;;;15.73;100.00;101968.97;10402566;28;20445;-76
2022/05/26 23:10:51;;;;;;;16.25;6.70;;;;;;;15.78;100.00;101961.00;10420106;28;20033;-77
2022/05/26 23:15:51;;;;;;;15.18;6.10;;;;;;;15.85;100.00;101973.81;10402223;28;20041;-76
2022/05/26 23:20:51;;;;;;;23.35;5.00;;;;;;;15.86;100.00;101976.38;10419621;28;20045;-76
2022/05/26 23:25:53;;;;;;;16.40;5.93;;;;;;;15.94;100.00;101978.88;10419973;28;20061;-76
2022/05/26 23:30:54;;;;;;;26.83;6.60;;;;;;;15.98;100.00;101984.78;10401349;28;20496;-76
2022/05/26 23:35:54;;;;;;;16.85;4.85;;;;;;;15.98;100.00;101982.88;10419577;28;20053;-76
2022/05/26 23:46:13;;;;;;;18.92;5.85;;;;;;;15.86;100.00;101987.28;10403866;28;20041;-77
2022/05/26 23:51:16;;;;;;;23.70;6.40;;;;;;;15.50;100.00;101982.06;10420427;28;20033;-78
